Time;durP1;ratioP1;P1;durP2;ratioP2;P2;SDS_P1;SDS_P2;PMS_P1;PMS_P2;Temp;Humidity;BMP_temperature;BMP_pressure;BME280_temperature;BME280_humidity;BME280_pressure;Samples;Min_cycle;Max_cycle;Signal;HPM_P1;HPM_P2
2023/06/02 00:02:16;;;;;;;18.08;4.03;;;;;;;11.82;83.41;102094.94;4979985;28;20037;-89
2023/06/02 00:04:42;;;;;;;7.57;2.67;;;;;;;11.75;83.81;102089.94;4982408;28;20030;-89
2023/06/02 00:07:07;;;;;;;8.82;3.45;;;;;;;11.82;83.29;102081.72;5006200;28;20037;-90
2023/06/02 00:09:38;;;;;;;8.07;3.25;;;;;;;11.83;83.10;102080.56;4985368;28;20038;-89
2023/06/02 00:12:03;;;;;;;8.30;3.20;;;;;;;11.78;81.86;102092.00;4995981;28;20038;-89
2023/06/02 00:14:30;;;;;;;11.35;2.83;;;;;;;11.52;82.31;102079.25;4977223;28;20045;-89
2023/06/02 00:16:57;;;;;;;10.68;3.47;;;;;;;11.76;81.29;102075.56;4976611;28;20129;-89
2023/06/02 00:19:23;;;;;;;5.20;2.33;;;;;;;11.87;81.78;102078.66;4989048;28;20324;-89
2023/06/02 00:21:49;;;;;;;9.20;3.03;;;;;;;11.41;83.17;102066.91;4988354;28;20398;-90
2023/06/02 00:24:14;;;;;;;8.80;2.88;;;;;;;11.78;82.29;102080.78;4989600;28;20034;-90
2023/06/02 00:26:39;;;;;;;7.15;2.78;;;;;;;11.66;82.21;102080.81;4979534;28;20030;-89
2023/06/02 00:29:05;;;;;;;7.13;2.38;;;;;;;11.59;82.18;102059.00;4994396;28;20037;-89
2023/06/02 00:31:30;;;;;;;10.80;3.08;;;;;;;11.51;82.64;102069.22;4982413;28;20034;-90
2023/06/02 00:33:56;;;;;;;3.97;2.10;;;;;;;11.50;82.15;102055.53;4986440;28;20072;-90
2023/06/02 00:36:21;;;;;;;6.22;2.58;;;;;;;11.42;82.64;102060.13;4977603;28;20030;-90
2023/06/02 00:38:46;;;;;;;9.93;2.78;;;;;;;11.57;82.21;102055.75;4995339;28;20034;-89
2023/06/02 00:41:12;;;;;;;11.10;2.50;;;;;;;11.74;81.41;102068.66;4973976;28;20121;-90
2023/06/02 00:43:37;;;;;;;5.65;2.42;;;;;;;11.83;80.98;102060.91;4977864;28;20374;-90
2023/06/02 00:46:02;;;;;;;9.25;2.72;;;;;;;11.49;82.54;102071.56;4977587;28;20109;-90
2023/06/02 00:48:28;;;;;;;6.40;2.60;;;;;;;11.36;83.16;102084.78;4983414;28;20038;-90
2023/06/02 00:50:54;;;;;;;6.90;2.15;;;;;;;11.57;82.51;102070.59;4980435;28;20088;-90
2023/06/02 00:53:19;;;;;;;7.25;2.47;;;;;;;11.42;82.45;102078.94;4994833;28;20089;-90
2023/06/02 00:55:46;;;;;;;5.68;2.50;;;;;;;11.04;81.67;102074.56;4978688;28;20046;-89
2023/06/02 00:58:13;;;;;;;7.60;2.00;;;;;;;11.38;80.58;102070.41;4982422;28;20056;-90
2023/06/02 01:00:41;;;;;;;6.50;2.38;;;;;;;11.62;80.83;102077.13;4976930;28;20030;-90
2023/06/02 01:03:07;;;;;;;6.40;2.03;;;;;;;11.71;80.16;102077.78;4981642;28;20022;-90
2023/06/02 01:05:33;;;;;;;7.30;2.25;;;;;;;11.48;81.98;102081.13;4973499;28;20522;-89
2023/06/02 01:08:02;;;;;;;8.43;2.85;;;;;;;11.55;81.36;102086.13;4976734;28;20027;-89
2023/06/02 01:10:29;;;;;;;9.02;3.13;;;;;;;11.79;80.13;102082.44;4976326;28;20050;-90
2023/06/02 01:12:54;;;;;;;8.95;2.72;;;;;;;11.62;80.79;102071.53;4988541;28;20027;-90
2023/06/02 01:15:20;;;;;;;12.55;3.63;;;;;;;11.72;80.96;102085.00;4991033;28;20033;-90
2023/06/02 01:17:46;;;;;;;6.25;2.25;;;;;;;11.85;80.06;102081.00;4981496;28;20451;-89
2023/06/02 01:20:13;;;;;;;6.82;3.28;;;;;;;11.59;80.32;102081.44;4977102;28;20156;-89
2023/06/02 01:23:01;;;;;;;10.30;3.15;;;;;;;11.62;80.32;102086.34;4976800;28;20033;-89
2023/06/02 01:25:27;;;;;;;5.63;3.05;;;;;;;11.37;81.55;102075.19;4973125;28;20118;-91
2023/06/02 01:27:57;;;;;;;6.13;2.65;;;;;;;11.49;80.65;102071.56;4986084;28;20042;-89
2023/06/02 01:30:23;;;;;;;9.98;2.53;;;;;;;11.40;82.05;102073.66;4978949;28;20042;-89
2023/06/02 01:33:04;;;;;;;19.80;5.18;;;;;;;11.54;81.02;102085.31;4984291;28;20432;-89
2023/06/02 01:35:32;;;;;;;7.68;2.15;;;;;;;11.34;81.89;102081.53;4978522;28;20509;-89
2023/06/02 01:37:59;;;;;;;9.02;2.53;;;;;;;11.16;82.47;102085.75;4981226;28;20050;-90
2023/06/02 01:40:27;;;;;;;12.10;2.85;;;;;;;11.69;80.82;102085.75;4979702;28;20138;-89
2023/06/02 01:42:53;;;;;;;9.13;2.60;;;;;;;11.39;81.41;102077.66;4999376;28;20037;-89
2023/06/02 01:45:20;;;;;;;10.75;2.13;;;;;;;11.65;80.71;102077.22;4977300;28;20475;-89
2023/06/02 01:47:45;;;;;;;4.82;2.00;;;;;;;11.63;80.19;102081.56;4979844;28;20042;-89
2023/06/02 01:50:10;;;;;;;6.50;3.17;;;;;;;11.53;81.07;102078.09;4987912;28;20034;-89
2023/06/02 01:52:36;;;;;;;9.18;2.72;;;;;;;11.30;81.95;102071.34;4976667;28;20035;-88
2023/06/02 01:55:02;;;;;;;10.15;2.22;;;;;;;11.32;81.84;102071.81;4977910;28;20335;-88
2023/06/02 01:57:28;;;;;;;8.18;2.50;;;;;;;11.56;80.94;102071.75;5000095;28;20026;-90
2023/06/02 01:59:54;;;;;;;10.32;2.40;;;;;;;11.30;81.77;102069.38;4984457;28;20026;-89
2023/06/02 02:02:19;;;;;;;10.63;2.08;;;;;;;11.54;80.85;102067.69;4989695;28;20589;-89
2023/06/02 02:04:45;;;;;;;9.07;2.42;;;;;;;11.58;80.84;102069.41;4990845;28;20084;-90
2023/06/02 02:07:11;;;;;;;7.97;1.88;;;;;;;11.80;80.37;102075.63;4974851;28;20090;-89
2023/06/02 02:09:37;;;;;;;5.15;1.98;;;;;;;11.76;80.67;102071.91;4994454;28;20030;-88
2023/06/02 02:12:03;;;;;;;7.80;2.40;;;;;;;11.70;80.94;102071.38;4995617;28;20514;-88
2023/06/02 02:14:29;;;;;;;6.05;1.88;;;;;;;11.37;81.93;102071.59;4979901;28;20072;-89
2023/06/02 02:16:54;;;;;;;11.75;2.45;;;;;;;11.29;82.93;102078.16;4981272;28;20088;-89
2023/06/02 02:19:22;;;;;;;12.38;2.92;;;;;;;11.39;82.00;102086.06;4983659;28;20066;-89
2023/06/02 02:21:48;;;;;;;7.03;1.92;;;;;;;11.22;81.96;102072.34;4979701;28;20538;-88
2023/06/02 02:24:14;;;;;;;15.68;2.55;;;;;;;11.14;81.73;102062.88;4977205;28;20034;-89
2023/06/02 02:26:40;;;;;;;4.13;1.98;;;;;;;11.37;81.57;102074.41;4971912;28;20501;-89
2023/06/02 02:29:06;;;;;;;9.85;2.13;;;;;;;11.31;81.44;102070.19;4975749;28;20026;-89
2023/06/02 02:31:31;;;;;;;7.32;2.50;;;;;;;11.38;80.75;102071.25;4976472;28;20117;-89
2023/06/02 02:33:57;;;;;;;7.20;2.65;;;;;;;11.60;79.87;102067.06;4982265;28;20545;-89
2023/06/02 02:36:22;;;;;;;9.10;2.97;;;;;;;11.59;80.95;102073.03;4982199;28;20034;-89
2023/06/02 02:38:47;;;;;;;10.57;2.42;;;;;;;11.44;81.45;102063.38;4981479;28;20194;-89
2023/06/02 02:41:13;;;;;;;5.00;2.08;;;;;;;11.49;81.13;102074.38;4975918;28;20030;-89
2023/06/02 02:43:41;;;;;;;8.38;2.40;;;;;;;11.39;81.79;102069.25;4969306;28;20394;-88
2023/06/02 02:46:07;;;;;;;10.20;2.38;;;;;;;11.51;81.51;102069.22;4975547;28;20474;-88
2023/06/02 02:48:35;;;;;;;8.07;2.25;;;;;;;11.62;81.32;102072.34;4979227;28;20034;-89
2023/06/02 02:51:00;;;;;;;8.35;2.97;;;;;;;11.56;81.26;102062.53;4975680;28;20083;-89
2023/06/02 02:53:31;;;;;;;4.43;2.05;;;;;;;11.69;81.18;102058.50;4976571;28;20118;-88
2023/06/02 02:55:56;;;;;;;6.93;1.52;;;;;;;11.95;79.76;102065.66;4973121;28;20053;-88
2023/06/02 02:58:22;;;;;;;5.80;1.70;;;;;;;11.85;80.68;102069.78;4974047;28;20126;-88
2023/06/02 03:00:47;;;;;;;3.00;1.70;;;;;;;11.76;80.91;102063.50;4975661;28;20038;-88
2023/06/02 03:03:13;;;;;;;7.55;1.65;;;;;;;11.49;82.50;102054.75;4976375;28;20030;-89
2023/06/02 03:05:41;;;;;;;7.82;2.28;;;;;;;11.72;81.60;102057.81;4974478;28;20030;-88
2023/06/02 03:08:09;;;;;;;10.38;2.38;;;;;;;11.51;82.32;102066.41;4977088;28;20034;-88
2023/06/02 03:10:35;;;;;;;9.35;2.10;;;;;;;11.70;81.46;102059.31;4981119;28;20030;-89
2023/06/02 03:13:01;;;;;;;8.18;1.77;;;;;;;11.45;82.33;102045.41;4981076;28;20486;-89
2023/06/02 03:15:27;;;;;;;10.00;1.92;;;;;;;11.43;83.05;102058.97;4973073;28;20070;-88
2023/06/02 03:17:55;;;;;;;11.50;1.95;;;;;;;11.55;82.30;102053.31;4981580;28;20359;-88
2023/06/02 03:20:21;;;;;;;4.70;1.95;;;;;;;11.50;83.21;102055.53;4994450;28;20491;-89
2023/06/02 03:22:47;;;;;;;5.60;1.50;;;;;;;11.59;82.71;102054.25;4997106;28;20018;-87
2023/06/02 03:25:13;;;;;;;9.55;2.70;;;;;;;11.52;83.51;102054.00;4978947;28;20374;-87
2023/06/02 03:27:38;;;;;;;9.88;2.13;;;;;;;11.48;83.84;102064.31;4997700;28;20075;-89
2023/06/02 03:30:04;;;;;;;8.60;2.13;;;;;;;11.69;82.87;102060.50;4977907;28;20030;-88
2023/06/02 03:32:30;;;;;;;8.20;2.10;;;;;;;11.57;83.73;102056.59;4975226;28;20105;-89
2023/06/02 03:34:55;;;;;;;7.28;1.77;;;;;;;11.44;84.66;102056.97;4979674;28;20053;-89
2023/06/02 03:37:20;;;;;;;8.20;1.88;;;;;;;11.41;84.99;102064.09;4972445;28;20107;-88
2023/06/02 03:39:46;;;;;;;7.45;2.30;;;;;;;11.63;84.20;102059.94;4973084;28;20667;-89
2023/06/02 03:42:11;;;;;;;6.57;1.77;;;;;;;11.73;83.78;102067.84;4970884;28;20041;-89
2023/06/02 03:44:37;;;;;;;7.22;2.15;;;;;;;11.76;83.45;102069.94;5005379;28;20074;-88
2023/06/02 03:47:02;;;;;;;12.13;2.88;;;;;;;11.47;85.08;102053.44;4971238;28;20060;-89
2023/06/02 03:49:29;;;;;;;9.60;2.28;;;;;;;11.52;84.82;102061.63;4972785;28;20045;-88
2023/06/02 03:51:55;;;;;;;6.57;1.77;;;;;;;11.65;83.80;102056.78;4981030;28;20042;-88
2023/06/02 03:54:20;;;;;;;5.78;2.08;;;;;;;11.81;83.05;102057.66;4976394;28;20391;-89
2023/06/02 03:56:46;;;;;;;12.15;2.65;;;;;;;11.52;85.20;102065.22;4979494;28;20364;-88
2023/06/02 03:59:11;;;;;;;13.80;2.47;;;;;;;11.63;84.18;102070.34;4977207;28;20034;-88
2023/06/02 04:01:37;;;;;;;8.38;2.10;;;;;;;11.78;83.21;102069.56;4977136;28;20113;-89
2023/06/02 04:04:03;;;;;;;8.68;2.70;;;;;;;11.70;84.73;102065.75;4993683;28;20113;-88
2023/06/02 04:06:28;;;;;;;9.32;2.55;;;;;;;11.70;83.54;102056.50;4977769;28;20037;-89
2023/06/02 04:08:54;;;;;;;6.10;1.88;;;;;;;11.59;85.42;102071.06;4975298;28;20085;-89
2023/06/02 04:11:22;;;;;;;5.72;2.00;;;;;;;11.78;84.34;102072.38;4976704;28;20042;-89
2023/06/02 04:13:49;;;;;;;5.65;2.08;;;;;;;11.63;85.44;102078.75;4975255;28;21171;-89
2023/06/02 04:16:14;;;;;;;9.80;2.28;;;;;;;11.77;84.17;102076.38;4975261;28;20063;-89
2023/06/02 04:18:40;;;;;;;7.88;1.98;;;;;;;11.53;85.66;102072.47;4978999;28;20030;-89
2023/06/02 04:21:05;;;;;;;8.23;1.80;;;;;;;11.83;83.81;102071.28;4979433;28;20038;-88
2023/06/02 04:23:31;;;;;;;13.23;2.50;;;;;;;11.91;83.36;102075.97;4975059;28;20152;-88
2023/06/02 04:25:56;;;;;;;6.43;2.72;;;;;;;11.87;83.80;102064.63;4979343;28;20050;-89
2023/06/02 04:28:21;;;;;;;10.60;2.17;;;;;;;11.65;85.37;102080.03;4984787;28;20121;-88
2023/06/02 04:30:54;;;;;;;8.85;2.13;;;;;;;11.58;84.71;102077.03;4980602;28;20084;-89
2023/06/02 04:33:21;;;;;;;14.73;1.98;;;;;;;11.48;85.63;102089.53;4984317;28;20092;-88
2023/06/02 04:35:47;;;;;;;10.77;1.95;;;;;;;11.39;87.19;102077.66;4978874;28;20085;-89
2023/06/02 04:38:13;;;;;;;9.77;2.47;;;;;;;11.62;85.48;102079.94;4977291;28;21486;-89
2023/06/02 04:40:39;;;;;;;12.02;2.10;;;;;;;11.67;85.39;102083.28;4979993;28;20459;-89
2023/06/02 04:43:04;;;;;;;5.45;1.73;;;;;;;11.86;84.02;102085.44;4975129;28;20101;-88
2023/06/02 04:45:30;;;;;;;7.65;2.97;;;;;;;11.84;84.10;102087.78;4991884;28;20085;-89
2023/06/02 04:47:55;;;;;;;7.43;3.42;;;;;;;11.76;85.64;102091.53;4971206;28;20113;-88
2023/06/02 04:50:21;;;;;;;7.07;2.10;;;;;;;11.66;86.40;102094.84;4966662;28;20149;-88
2023/06/02 04:52:46;;;;;;;9.85;2.10;;;;;;;11.84;84.89;102099.00;4994565;28;20503;-89
2023/06/02 04:55:12;;;;;;;10.98;3.17;;;;;;;11.80;86.28;102093.31;4976791;28;20034;-89
2023/06/02 04:57:37;;;;;;;6.78;1.50;;;;;;;11.74;87.30;102105.09;4995575;28;20030;-88
2023/06/02 05:00:05;;;;;;;9.55;2.30;;;;;;;11.58;88.67;102096.66;4968997;28;20049;-89
2023/06/02 05:02:31;;;;;;;9.52;2.55;;;;;;;11.49;87.74;102105.22;4970466;28;20072;-89
2023/06/02 05:04:57;;;;;;;9.88;2.63;;;;;;;11.29;89.33;102101.38;4973559;28;20031;-89
2023/06/02 05:07:22;;;;;;;6.97;2.70;;;;;;;11.29;89.34;102100.56;4976071;28;20422;-89
2023/06/02 05:09:48;;;;;;;14.13;3.75;;;;;;;11.51;88.00;102093.63;4979613;28;20036;-89
2023/06/02 05:12:16;;;;;;;5.28;2.65;;;;;;;11.51;88.98;102102.88;4976006;28;20030;-90
2023/06/02 05:14:41;;;;;;;6.70;2.20;;;;;;;11.47;88.63;102092.69;4988080;28;20022;-89
2023/06/02 05:17:07;;;;;;;14.00;2.80;;;;;;;11.37;88.69;102111.66;4993008;28;20480;-89
2023/06/02 05:19:33;;;;;;;5.55;2.13;;;;;;;11.47;88.06;102099.13;4978749;28;21838;-89
2023/06/02 05:21:58;;;;;;;9.73;2.00;;;;;;;11.44;89.95;102102.63;4976713;28;20050;-88
2023/06/02 05:24:24;;;;;;;11.35;2.15;;;;;;;11.59;88.17;102101.91;4978942;28;20108;-89
2023/06/02 05:26:49;;;;;;;8.02;2.10;;;;;;;11.58;87.59;102091.84;4975969;28;20034;-89
2023/06/02 05:29:15;;;;;;;13.95;3.50;;;;;;;11.70;88.57;102104.19;4985655;28;20026;-90
2023/06/02 05:31:40;;;;;;;6.43;2.50;;;;;;;11.58;87.41;102097.47;4979443;28;20027;-90
2023/06/02 05:34:06;;;;;;;8.02;2.65;;;;;;;11.73;86.84;102092.28;4977005;28;20069;-89
2023/06/02 05:36:31;;;;;;;9.27;2.65;;;;;;;11.80;86.48;102103.69;4979070;28;20088;-90
2023/06/02 05:38:57;;;;;;;10.38;3.05;;;;;;;11.71;88.86;102098.22;4994440;28;20048;-89
2023/06/02 05:41:24;;;;;;;8.98;2.00;;;;;;;11.75;88.32;102098.34;4978563;28;20117;-90
2023/06/02 05:43:49;;;;;;;5.25;2.58;;;;;;;11.59;89.80;102095.47;4998595;28;20629;-89
2023/06/02 05:46:15;;;;;;;12.18;3.13;;;;;;;11.51;89.37;102094.44;4975070;28;20038;-89
2023/06/02 05:48:40;;;;;;;5.60;3.03;;;;;;;11.59;88.95;102099.09;4980954;28;20034;-89
2023/06/02 05:51:05;;;;;;;7.75;2.83;;;;;;;11.88;86.94;102099.09;4973113;28;20403;-89
2023/06/02 05:53:31;;;;;;;7.53;2.30;;;;;;;11.66;88.08;102092.03;4981065;28;20462;-90
2023/06/02 05:55:56;;;;;;;6.72;2.10;;;;;;;11.98;86.26;102093.81;4993063;28;20545;-90
2023/06/02 05:58:22;;;;;;;13.43;2.88;;;;;;;11.94;86.63;102104.13;4967915;28;20105;-90
2023/06/02 06:00:47;;;;;;;9.90;2.08;;;;;;;11.84;87.60;102098.19;4979151;28;20042;-90
2023/06/02 06:03:14;;;;;;;5.50;2.00;;;;;;;11.82;91.64;102106.16;4979753;28;20359;-86
2023/06/02 06:05:39;;;;;;;11.00;2.45;;;;;;;13.23;82.96;102098.19;4992332;28;20402;-87
2023/06/02 06:08:05;;;;;;;12.07;3.40;;;;;;;12.96;82.96;102102.75;4973465;28;20026;-85
2023/06/02 06:10:30;;;;;;;14.77;3.88;;;;;;;12.68;84.13;102098.06;4974976;28;20092;-83
2023/06/02 06:12:56;;;;;;;9.70;2.58;;;;;;;12.59;85.06;102089.84;4974218;28;20018;-83
2023/06/02 06:15:21;;;;;;;10.93;3.28;;;;;;;12.53;86.07;102102.50;4976862;28;20035;-83
2023/06/02 06:17:52;;;;;;;10.38;2.75;;;;;;;12.46;86.15;102107.13;4979184;28;20108;-83
2023/06/02 06:20:18;;;;;;;7.72;2.53;;;;;;;12.45;85.81;102097.88;4986267;28;20118;-83
2023/06/02 06:22:44;;;;;;;10.30;3.15;;;;;;;12.53;86.12;102105.31;5002080;28;23436;-83
2023/06/02 06:25:10;;;;;;;11.25;3.22;;;;;;;12.53;86.16;102104.50;4979002;28;20338;-83
2023/06/02 06:27:36;;;;;;;10.70;4.05;;;;;;;12.29;88.21;102102.66;4993761;28;20030;-79
2023/06/02 06:30:01;;;;;;;11.73;2.97;;;;;;;12.49;86.50;102107.22;4980567;28;20044;-79
2023/06/02 06:32:26;;;;;;;6.97;2.95;;;;;;;12.52;85.72;102114.09;4976685;28;20072;-80
2023/06/02 06:34:52;;;;;;;11.93;2.72;;;;;;;12.60;85.34;102113.91;4980750;28;20085;-80
2023/06/02 06:37:17;;;;;;;8.45;2.72;;;;;;;12.62;85.62;102105.16;4980929;28;20080;-80
2023/06/02 06:39:42;;;;;;;11.80;2.72;;;;;;;12.61;86.26;102115.56;4985104;28;20108;-80
2023/06/02 06:42:08;;;;;;;15.10;3.33;;;;;;;12.61;86.10;102112.75;4982093;28;20034;-81
2023/06/02 06:44:33;;;;;;;12.50;3.33;;;;;;;12.66;86.48;102117.28;5007246;28;20133;-81
2023/06/02 06:46:59;;;;;;;5.72;2.50;;;;;;;12.54;87.32;102111.75;4987838;28;20038;-81
2023/06/02 06:49:24;;;;;;;4.25;2.22;;;;;;;12.58;87.19;102112.66;4988615;28;20395;-80
2023/06/02 06:51:49;;;;;;;13.18;3.08;;;;;;;12.65;87.61;102124.09;4991701;28;20038;-82
2023/06/02 06:54:15;;;;;;;8.68;3.10;;;;;;;12.70;87.03;102129.44;4987384;28;20042;-81
2023/06/02 06:56:43;;;;;;;8.63;2.67;;;;;;;12.72;86.86;102129.88;4981049;28;20038;-81
2023/06/02 06:59:09;;;;;;;10.77;3.03;;;;;;;12.65;88.22;102129.72;4987168;28;20498;-82
2023/06/02 07:01:35;;;;;;;8.52;2.67;;;;;;;12.73;87.43;102131.53;4979790;28;20027;-81
2023/06/02 07:04:00;;;;;;;8.73;3.17;;;;;;;12.74;87.83;102135.97;4986568;28;20031;-81
2023/06/02 07:06:26;;;;;;;7.20;2.65;;;;;;;12.78;87.79;102125.63;4983967;28;20022;-81
2023/06/02 07:08:51;;;;;;;11.20;2.50;;;;;;;12.97;87.15;102126.91;4985469;28;20026;-81
2023/06/02 07:11:17;;;;;;;10.57;3.15;;;;;;;13.05;86.41;102128.72;4982686;28;20483;-81
2023/06/02 07:13:42;;;;;;;4.65;2.70;;;;;;;12.98;86.79;102134.13;4990266;28;20034;-81
2023/06/02 07:16:08;;;;;;;12.38;2.92;;;;;;;12.96;86.80;102125.25;4985877;28;20050;-80
2023/06/02 07:18:34;;;;;;;10.68;3.03;;;;;;;12.88;87.02;102134.69;4986441;28;20030;-80
2023/06/02 07:20:59;;;;;;;8.80;3.58;;;;;;;13.03;86.76;102119.81;4985895;28;20089;-80
2023/06/02 07:23:25;;;;;;;11.57;3.15;;;;;;;13.00;87.19;102117.72;4976897;28;20109;-79
2023/06/02 07:25:50;;;;;;;11.52;2.70;;;;;;;13.10;87.10;102128.41;4985744;28;20390;-79
2023/06/02 07:28:16;;;;;;;12.45;3.03;;;;;;;13.14;86.19;102131.31;4990544;28;20042;-80
2023/06/02 07:30:48;;;;;;;10.52;3.00;;;;;;;13.20;86.82;102119.41;4994288;28;20030;-80
2023/06/02 07:33:16;;;;;;;9.38;2.85;;;;;;;13.18;86.08;102133.03;4991369;28;20034;-79
2023/06/02 07:35:41;;;;;;;15.63;3.53;;;;;;;13.27;86.04;102124.38;5003742;28;20125;-79
2023/06/02 07:38:07;;;;;;;6.85;2.80;;;;;;;13.29;86.21;102130.50;5009075;28;20125;-79
2023/06/02 07:40:32;;;;;;;9.25;2.80;;;;;;;13.32;86.42;102131.75;5007824;28;20018;-79
2023/06/02 07:42:57;;;;;;;5.95;3.13;;;;;;;13.31;86.35;102127.31;4997147;28;20052;-79
2023/06/02 07:45:23;;;;;;;9.73;2.67;;;;;;;13.31;86.18;102130.13;4981932;28;20324;-79
2023/06/02 07:47:48;;;;;;;9.30;3.00;;;;;;;13.33;86.75;102133.41;4986920;28;20486;-79
2023/06/02 07:50:14;;;;;;;12.02;2.97;;;;;;;13.35;86.44;102134.66;4990562;28;20045;-80
2023/06/02 07:52:39;;;;;;;6.43;2.35;;;;;;;13.31;86.40;102127.31;4993809;28;20180;-80
2023/06/02 07:55:05;;;;;;;9.73;2.85;;;;;;;13.30;86.77;102128.50;4987568;28;20187;-80
2023/06/02 07:57:30;;;;;;;7.40;3.22;;;;;;;13.32;86.97;102131.75;4993739;28;20037;-80
2023/06/02 07:59:56;;;;;;;9.45;3.65;;;;;;;13.44;87.35;102125.19;4997270;28;20430;-80
2023/06/02 08:02:21;;;;;;;13.32;3.40;;;;;;;13.42;87.60;102120.75;4997243;28;20034;-80
2023/06/02 08:04:47;;;;;;;12.68;3.95;;;;;;;13.55;87.36;102129.06;5000402;28;20113;-80
2023/06/02 08:07:12;;;;;;;10.15;3.22;;;;;;;13.60;87.37;102114.72;4991768;28;20026;-80
2023/06/02 08:09:38;;;;;;;10.02;3.25;;;;;;;13.66;87.49;102123.66;4981898;28;20521;-80
2023/06/02 08:12:03;;;;;;;7.30;3.63;;;;;;;13.65;87.44;102127.69;4992895;28;20482;-80
2023/06/02 08:14:28;;;;;;;9.85;2.80;;;;;;;13.63;88.05;102128.84;4987640;28;20387;-80
2023/06/02 08:16:55;;;;;;;5.22;2.50;;;;;;;13.58;88.33;102134.78;4986287;28;20031;-79
2023/06/02 08:19:22;;;;;;;7.47;3.47;;;;;;;13.75;87.22;102132.72;4983482;28;20479;-79
2023/06/02 08:21:48;;;;;;;8.82;3.25;;;;;;;13.65;88.02;102142.56;4994685;28;20048;-80
2023/06/02 08:24:14;;;;;;;11.70;2.78;;;;;;;13.71;87.87;102137.47;4990074;28;20038;-79
2023/06/02 08:26:40;;;;;;;13.23;3.53;;;;;;;13.83;87.61;102146.56;4982765;28;20034;-80
2023/06/02 08:29:08;;;;;;;11.05;3.30;;;;;;;13.74;88.11;102133.91;4986473;28;20071;-80
2023/06/02 08:31:35;;;;;;;13.07;4.38;;;;;;;13.73;88.05;102141.53;4986548;28;20046;-79
2023/06/02 08:34:02;;;;;;;13.45;3.78;;;;;;;13.72;88.91;102139.88;4994185;28;20669;-79
2023/06/02 08:36:27;;;;;;;10.93;4.38;;;;;;;13.81;88.25;102137.69;4996955;28;20383;-81
2023/06/02 08:38:53;;;;;;;16.20;3.85;;;;;;;13.88;88.18;102137.00;4988570;28;20050;-80
2023/06/02 08:41:19;;;;;;;17.85;3.88;;;;;;;13.94;88.26;102138.34;4993510;28;20091;-80
2023/06/02 08:43:44;;;;;;;11.65;4.05;;;;;;;13.80;88.40;102136.03;4990502;28;20503;-79
2023/06/02 08:46:16;;;;;;;11.30;3.72;;;;;;;13.85;88.98;102134.94;4996292;28;20621;-79
2023/06/02 08:48:45;;;;;;;7.07;3.42;;;;;;;13.76;89.37;102134.34;4996728;28;20040;-80
2023/06/02 08:51:14;;;;;;;10.35;4.47;;;;;;;13.85;88.85;102134.94;5003266;28;20030;-80
2023/06/02 08:53:41;;;;;;;12.05;4.88;;;;;;;13.94;88.50;102135.53;4998998;28;20033;-80
2023/06/02 08:56:07;;;;;;;12.48;3.88;;;;;;;14.08;88.19;102137.81;4978885;28;20026;-80
2023/06/02 08:58:33;;;;;;;9.80;3.22;;;;;;;14.07;88.82;102129.75;4982238;28;20038;-80
2023/06/02 09:00:58;;;;;;;10.77;3.03;;;;;;;14.08;88.55;102134.19;4974402;28;20030;-80
2023/06/02 09:03:27;;;;;;;14.10;4.03;;;;;;;14.03;89.58;102136.13;4982050;28;20035;-77
2023/06/02 09:05:52;;;;;;;14.27;4.18;;;;;;;14.05;89.37;102129.31;4980454;28;20542;-79
2023/06/02 09:08:18;;;;;;;12.35;3.90;;;;;;;14.19;88.50;102130.41;4989246;28;20117;-78
2023/06/02 09:10:45;;;;;;;12.30;3.85;;;;;;;14.24;89.13;102132.91;4982185;28;20053;-79
2023/06/02 09:13:30;;;;;;;17.30;4.22;;;;;;;14.19;89.36;102123.97;4984611;28;20034;-78
2023/06/02 09:15:57;;;;;;;9.48;3.72;;;;;;;14.28;88.19;102138.63;4978324;28;20546;-78
2023/06/02 09:18:23;;;;;;;18.30;4.70;;;;;;;14.34;88.39;102125.88;4980996;28;20030;-78
2023/06/02 09:20:48;;;;;;;12.50;4.30;;;;;;;14.36;88.40;102136.75;4994871;28;20053;-78
2023/06/02 09:23:14;;;;;;;11.20;3.80;;;;;;;14.48;87.56;102144.22;4989491;28;20026;-78
2023/06/02 09:25:40;;;;;;;16.90;3.90;;;;;;;14.53;87.08;102141.91;4982550;28;20080;-78
2023/06/02 09:28:07;;;;;;;7.90;3.47;;;;;;;14.56;87.24;102146.81;4986011;28;20032;-78
2023/06/02 09:30:32;;;;;;;11.63;3.40;;;;;;;14.48;88.88;102135.75;4979075;28;20402;-78
2023/06/02 09:33:00;;;;;;;9.05;4.82;;;;;;;14.71;89.47;102149.88;4985726;28;20038;-78
2023/06/02 09:35:51;;;;;;;11.43;3.75;;;;;;;14.75;88.56;102140.31;4985190;28;20492;-78
2023/06/02 09:38:17;;;;;;;11.70;5.10;;;;;;;14.87;88.56;102146.97;4979672;28;20047;-78
2023/06/02 09:40:43;;;;;;;12.75;4.35;;;;;;;14.87;87.67;102144.13;4979715;28;20550;-78
2023/06/02 09:43:10;;;;;;;8.77;4.38;;;;;;;14.83;86.55;102144.06;4983059;28;20153;-77
2023/06/02 09:46:00;;;;;;;17.50;6.20;;;;;;;14.84;86.55;102125.94;4982790;28;20039;-78
2023/06/02 09:48:27;;;;;;;13.40;4.90;;;;;;;14.81;87.55;102127.53;4979667;28;20058;-79
2023/06/02 09:50:53;;;;;;;13.30;4.47;;;;;;;14.99;88.73;102138.31;4995694;28;20081;-78
2023/06/02 09:53:19;;;;;;;16.90;4.80;;;;;;;15.17;86.90;102142.19;5000583;28;20033;-78
2023/06/02 09:55:47;;;;;;;15.10;4.35;;;;;;;15.16;86.91;102132.13;4987105;28;20387;-78
2023/06/02 09:58:13;;;;;;;10.00;4.22;;;;;;;15.07;87.50;102134.38;4982316;28;20092;-78
2023/06/02 10:00:39;;;;;;;18.88;4.53;;;;;;;15.11;88.43;102129.63;4983067;28;20289;-78
2023/06/02 10:03:06;;;;;;;18.42;4.78;;;;;;;15.36;86.65;102146.13;4978870;28;20061;-78
2023/06/02 10:05:32;;;;;;;19.02;4.47;;;;;;;15.54;87.64;102135.09;4993752;28;20495;-78
2023/06/02 10:08:24;;;;;;;16.50;4.95;;;;;;;15.70;85.69;102146.19;4982781;28;20065;-78
2023/06/02 10:11:17;;;;;;;9.93;4.15;;;;;;;15.45;87.19;102143.81;4980550;28;20034;-78
2023/06/02 10:14:01;;;;;;;;;;;;;;;15.94;84.32;102131.63;4994431;28;20030;-77
2023/06/02 10:16:51;;;;;;;18.35;4.43;;;;;;;15.72;85.76;102135.34;4993778;28;21382;-78
2023/06/02 10:19:31;;;;;;;18.70;5.93;;;;;;;15.53;87.15;102130.63;4978649;28;20034;-78
2023/06/02 10:22:17;;;;;;;15.07;4.43;;;;;;;16.15;84.88;102130.22;4992946;28;20097;-79
2023/06/02 10:25:11;;;;;;;19.05;5.47;;;;;;;15.98;83.55;102121.19;4977885;28;20041;-79
2023/06/02 10:27:40;;;;;;;19.77;5.65;;;;;;;16.37;82.91;102125.63;4971099;28;20094;-79
2023/06/02 10:30:06;;;;;;;14.60;5.03;;;;;;;16.63;81.64;102121.84;4974537;28;20474;-79
2023/06/02 10:32:43;;;;;;;12.63;4.75;;;;;;;16.86;80.84;102119.69;4980262;28;20042;-79
2023/06/02 10:35:08;;;;;;;9.75;4.50;;;;;;;16.94;79.75;102119.72;4974526;28;20031;-80
2023/06/02 10:37:36;;;;;;;11.40;4.43;;;;;;;17.08;80.15;102114.19;4978442;28;20383;-80
2023/06/02 10:40:03;;;;;;;9.93;4.03;;;;;;;17.71;75.43;102105.63;4975518;28;20081;-79
2023/06/02 10:42:31;;;;;;;12.00;4.68;;;;;;;17.50;77.56;102101.50;4980723;28;20064;-79
2023/06/02 10:45:18;;;;;;;13.75;4.75;;;;;;;17.71;76.25;102105.63;4973597;28;20487;-79
2023/06/02 10:47:46;;;;;;;12.10;4.60;;;;;;;18.07;74.90;102107.44;4979684;28;20466;-78
2023/06/02 10:50:14;;;;;;;13.65;5.22;;;;;;;18.16;73.32;102109.88;4974526;28;21262;-78
2023/06/02 10:52:58;;;;;;;13.93;4.68;;;;;;;17.94;74.09;102109.03;4978267;28;20118;-78
2023/06/02 10:55:34;;;;;;;9.77;4.45;;;;;;;17.68;76.95;102102.38;4978428;28;20451;-78
2023/06/02 10:58:05;;;;;;;16.00;5.05;;;;;;;17.64;78.42;102097.91;4992104;28;20170;-78
2023/06/02 11:00:36;;;;;;;17.38;4.85;;;;;;;17.61;77.40;102102.38;4984141;28;20030;-78
2023/06/02 11:03:03;;;;;;;12.07;4.82;;;;;;;17.79;76.63;102091.13;4984643;28;20495;-78
2023/06/02 11:05:30;;;;;;;15.02;5.88;;;;;;;17.37;76.22;102091.72;4974644;28;20054;-80
2023/06/02 11:08:11;;;;;;;14.05;5.60;;;;;;;17.00;78.90;102089.88;4979293;28;20041;-79
2023/06/02 11:10:46;;;;;;;10.65;3.95;;;;;;;18.16;76.46;102092.06;4980363;28;20034;-79
2023/06/02 11:13:18;;;;;;;14.27;5.15;;;;;;;17.90;76.50;102094.03;4983266;28;20483;-80
2023/06/02 11:15:58;;;;;;;13.88;5.28;;;;;;;18.28;76.13;102094.53;4980911;28;20108;-80
2023/06/02 11:18:32;;;;;;;19.60;5.95;;;;;;;18.25;74.01;102101.00;4994580;28;20505;-80
2023/06/02 11:21:03;;;;;;;11.57;5.40;;;;;;;17.64;76.04;102090.22;4974172;28;20073;-80
2023/06/02 11:23:28;;;;;;;17.30;4.85;;;;;;;17.97;74.77;102090.41;4978154;28;20540;-80